OOCL California — VRWC8 — position and weather

sailwx.info

Track history (hours):
 
Tides and Currents Weather Stations Pressure Air Temp Water Temp Dewpoint Dewpoint Depression Visibility Wind Speed Wind Dir Waves Ship Positions

OOCL California

Last reported at 2015-Feb-23 00:00 UTC. Time now 2015-Mar-04 15:21 UTC.
Position S 26°24' E 153°18'.
Warning: this ship's position is 9 days out of date.

Length 276 m; beam 40 m; draft 14 m.

Type: Cargo ship. MMSI: 477704000.

Wind from 150 at 19 knots

Waves 2.0 meters (7 feet), 8 second period

Barometer 1009.5 mb
Air temperature 25.0 ° C
Visibility: greater than 10.8 NM
Dewpoint 23.5 ° C
Water temperature 26.0 ° C

Date/timePositionNaut miles runAvg speedWind from/ knotsBaromVisibWave heightAir tempDewpointWater temp
2015-Feb-23 00:00S 26°24' E 153°18'6 8.5 150 / 191009.510.8 2.025.023.526.0
2015-Feb-22 23:14S 26°30' E 153°17'1014.1
2015-Feb-22 22:33S 26°39' E 153°14'1211.6
2015-Feb-22 21:33S 26°50' E 153°09'1414.3
2015-Feb-22 20:33S 27°03' E 153°17'1313.2
2015-Feb-22 19:33S 27°16' E 153°16'8 8.4
2015-Feb-22 18:33S 27°22' E 153°10'0 0.0
2015-Feb-22 17:31S 27°22' E 153°10'0 0.0
2015-Feb-22 16:31S 27°22' E 153°10'0 0.0
2015-Feb-22 15:31S 27°22' E 153°10'0 0.0
2015-Feb-22 14:31S 27°22' E 153°10'0 0.0
2015-Feb-22 13:31S 27°22' E 153°10'0 0.0
2015-Feb-22 12:31S 27°22' E 153°10'0 0.0
2015-Feb-22 11:31S 27°22' E 153°10'0 0.0
2015-Feb-22 10:31S 27°22' E 153°10'31 1.0
2015-Feb-21 04:33S 27°03' E 153°38'1514.6
2015-Feb-21 03:34S 27°18' E 153°40'1414.4
2015-Feb-21 02:34S 27°32' E 153°42'1312.8
2015-Feb-21 01:33S 27°45' E 153°42'1414.2
2015-Feb-21 00:33S 27°59' E 153°43'1615.8
2015-Feb-20 23:33S 28°14' E 153°46'25614.0
2015-Feb-20 05:12S 32°24' E 152°41'1015.7
2015-Feb-20 04:33S 32°34' E 152°37'1615.5
2015-Feb-20 03:33S 32°48' E 152°29'1615.5
2015-Feb-20 02:33S 33°02' E 152°22'1515.2
2015-Feb-20 01:33S 33°16' E 152°15'35817.6
2015-Feb-19 05:14S 38°31' E 148°42'1418.8
2015-Feb-19 04:30S 38°39' E 148°28'1919.0
2015-Feb-19 03:31S 38°49' E 148°08'1819.3
2015-Feb-19 02:33S 38°55' E 147°46'1919.4
2015-Feb-19 01:33S 39°02' E 147°22'1918.7
2015-Feb-19 00:33S 39°08' E 146°60'1818.4
2015-Feb-18 23:33S 39°15' E 146°38'1818.2
2015-Feb-18 22:33S 39°17' E 146°14'1919.0
2015-Feb-18 21:33S 39°06' E 145°54'2019.2
2015-Feb-18 20:32S 38°55' E 145°33'67 1.5
2015-Feb-17 01:11S 37°55' E 144°56'36 9.6
2015-Feb-16 21:28S 38°29' E 144°44'6113.9
2015-Feb-16 17:04S 39°01' E 145°51'713.4
2015-Feb-16 16:34S 39°04' E 145°59'1313.5
2015-Feb-16 15:34S 39°11' E 146°14'1312.9
2015-Feb-16 14:34S 39°09' E 146°30'1313.4
2015-Feb-16 13:34S 39°05' E 146°47'1313.4
2015-Feb-16 12:33S 39°01' E 147°03'1414.3
2015-Feb-16 11:33S 38°56' E 147°21'1514.8
2015-Feb-16 10:33S 38°51' E 147°39'1815.3
2015-Feb-16 09:23S 38°46' E 148°00'1515.7
2015-Feb-16 08:24S 38°39' E 148°18'1214.7
2015-Feb-16 07:33S 38°32' E 148°32'1414.5
2015-Feb-16 06:33S 38°24' E 148°47'1414.4
2015-Feb-16 05:34S 38°16' E 149°02'1414.5
2015-Feb-16 04:34S 38°07' E 149°16'1414.2
2015-Feb-16 03:34S 37°59' E 149°31'1413.8
2015-Feb-16 02:33S 37°51' E 149°45'1414.1
2015-Feb-16 01:32S 37°42' E 149°60'1616.0
2015-Feb-16 00:33S 37°28' E 150°08'1629.2
2015-Feb-16 00:00S 37°12' E 150°12'3 6.6 340 / 191014.010.8 2.024.021.027.0
2015-Feb-15 23:33S 37°13' E 150°15'  
2015-Feb-13 19:18S 33°03' E 152°13'1216.7
2015-Feb-13 18:33S 32°54' E 152°22'1716.6
2015-Feb-13 17:33S 32°41' E 152°35'1816.3
2015-Feb-13 16:26S 32°26' E 152°47'26217.6
2015-Feb-13 01:31S 28°09' E 153°50'1917.7
2015-Feb-13 00:25S 27°50' E 153°52'  
Track history (hours):
 
Tides and Currents Weather Stations Pressure Air Temp Water Temp Dewpoint Dewpoint Depression Visibility Wind Speed Wind Dir Waves Ship Positions

OOCL California

Last reported at 2015-Feb-23 00:00 UTC. Time now 2015-Mar-04 15:21 UTC.
Position S 26°24' E 153°18'.
Warning: this ship's position is 9 days out of date.

Length 276 m; beam 40 m; draft 14 m.

Type: Cargo ship. MMSI: 477704000.

Wind from 150 at 19 knots

Waves 2.0 meters (7 feet), 8 second period

Barometer 1009.5 mb
Air temperature 25.0 ° C
Visibility: greater than 10.8 NM
Dewpoint 23.5 ° C
Water temperature 26.0 ° C

Date/timePositionNaut miles runAvg speedWind from/ knotsBaromVisibWave heightAir tempDewpointWater temp
2015-Feb-23 00:00S 26°24' E 153°18'6 8.5 150 / 191009.510.8 2.025.023.526.0
2015-Feb-22 23:14S 26°30' E 153°17'1014.1
2015-Feb-22 22:33S 26°39' E 153°14'1211.6
2015-Feb-22 21:33S 26°50' E 153°09'1414.3
2015-Feb-22 20:33S 27°03' E 153°17'1313.2
2015-Feb-22 19:33S 27°16' E 153°16'8 8.4
2015-Feb-22 18:33S 27°22' E 153°10'0 0.0
2015-Feb-22 17:31S 27°22' E 153°10'0 0.0
2015-Feb-22 16:31S 27°22' E 153°10'0 0.0
2015-Feb-22 15:31S 27°22' E 153°10'0 0.0
2015-Feb-22 14:31S 27°22' E 153°10'0 0.0
2015-Feb-22 13:31S 27°22' E 153°10'0 0.0
2015-Feb-22 12:31S 27°22' E 153°10'0 0.0
2015-Feb-22 11:31S 27°22' E 153°10'0 0.0
2015-Feb-22 10:31S 27°22' E 153°10'31 1.0
2015-Feb-21 04:33S 27°03' E 153°38'1514.6
2015-Feb-21 03:34S 27°18' E 153°40'1414.4
2015-Feb-21 02:34S 27°32' E 153°42'1312.8
2015-Feb-21 01:33S 27°45' E 153°42'1414.2
2015-Feb-21 00:33S 27°59' E 153°43'1615.8
2015-Feb-20 23:33S 28°14' E 153°46'25614.0
2015-Feb-20 05:12S 32°24' E 152°41'1015.7
2015-Feb-20 04:33S 32°34' E 152°37'1615.5
2015-Feb-20 03:33S 32°48' E 152°29'1615.5
2015-Feb-20 02:33S 33°02' E 152°22'1515.2
2015-Feb-20 01:33S 33°16' E 152°15'35817.6
2015-Feb-19 05:14S 38°31' E 148°42'1418.8
2015-Feb-19 04:30S 38°39' E 148°28'1919.0
2015-Feb-19 03:31S 38°49' E 148°08'1819.3
2015-Feb-19 02:33S 38°55' E 147°46'1919.4
2015-Feb-19 01:33S 39°02' E 147°22'1918.7
2015-Feb-19 00:33S 39°08' E 146°60'1818.4
2015-Feb-18 23:33S 39°15' E 146°38'1818.2
2015-Feb-18 22:33S 39°17' E 146°14'1919.0
2015-Feb-18 21:33S 39°06' E 145°54'2019.2
2015-Feb-18 20:32S 38°55' E 145°33'67 1.5
2015-Feb-17 01:11S 37°55' E 144°56'36 9.6
2015-Feb-16 21:28S 38°29' E 144°44'6113.9
2015-Feb-16 17:04S 39°01' E 145°51'713.4
2015-Feb-16 16:34S 39°04' E 145°59'1313.5
2015-Feb-16 15:34S 39°11' E 146°14'1312.9
2015-Feb-16 14:34S 39°09' E 146°30'1313.4
2015-Feb-16 13:34S 39°05' E 146°47'1313.4
2015-Feb-16 12:33S 39°01' E 147°03'1414.3
2015-Feb-16 11:33S 38°56' E 147°21'1514.8
2015-Feb-16 10:33S 38°51' E 147°39'1815.3
2015-Feb-16 09:23S 38°46' E 148°00'1515.7
2015-Feb-16 08:24S 38°39' E 148°18'1214.7
2015-Feb-16 07:33S 38°32' E 148°32'1414.5
2015-Feb-16 06:33S 38°24' E 148°47'1414.4
2015-Feb-16 05:34S 38°16' E 149°02'1414.5
2015-Feb-16 04:34S 38°07' E 149°16'1414.2
2015-Feb-16 03:34S 37°59' E 149°31'1413.8
2015-Feb-16 02:33S 37°51' E 149°45'1414.1
2015-Feb-16 01:32S 37°42' E 149°60'1616.0
2015-Feb-16 00:33S 37°28' E 150°08'1629.2
2015-Feb-16 00:00S 37°12' E 150°12'3 6.6 340 / 191014.010.8 2.024.021.027.0
2015-Feb-15 23:33S 37°13' E 150°15'  
2015-Feb-13 19:18S 33°03' E 152°13'1216.7
2015-Feb-13 18:33S 32°54' E 152°22'1716.6
2015-Feb-13 17:33S 32°41' E 152°35'1816.3
2015-Feb-13 16:26S 32°26' E 152°47'26217.6
2015-Feb-13 01:31S 28°09' E 153°50'1917.7
2015-Feb-13 00:25S 27°50' E 153°52'  

Dump ship's entire track history